sensor_id;sensor_type;location;lat;lon;timestamp;P1;durP1;ratioP1;P2;durP2;ratioP2
25381;SDS011;16307;42.896;20.874;2023-04-15T00:00:53;2.05;;;1.25;;
25381;SDS011;16307;42.896;20.874;2023-04-15T00:03:44;2.53;;;1.08;;
25381;SDS011;16307;42.896;20.874;2023-04-15T00:06:43;2.67;;;1.20;;
25381;SDS011;16307;42.896;20.874;2023-04-15T00:10:00;2.05;;;1.00;;
25381;SDS011;16307;42.896;20.874;2023-04-15T00:13:04;1.95;;;1.20;;
25381;SDS011;16307;42.896;20.874;2023-04-15T00:16:43;2.45;;;1.55;;
25381;SDS011;16307;42.896;20.874;2023-04-15T00:20:17;3.50;;;1.65;;
25381;SDS011;16307;42.896;20.874;2023-04-15T00:23:19;2.03;;;1.30;;
25381;SDS011;16307;42.896;20.874;2023-04-15T00:27:26;1.98;;;1.20;;
25381;SDS011;16307;42.896;20.874;2023-04-15T00:30:27;2.35;;;1.25;;
25381;SDS011;16307;42.896;20.874;2023-04-15T00:34:10;1.85;;;1.20;;
25381;SDS011;16307;42.896;20.874;2023-04-15T00:37:10;2.67;;;1.35;;
25381;SDS011;16307;42.896;20.874;2023-04-15T00:40:06;4.22;;;1.58;;
25381;SDS011;16307;42.896;20.874;2023-04-15T00:43:24;3.08;;;1.50;;
25381;SDS011;16307;42.896;20.874;2023-04-15T00:47:02;1.92;;;1.20;;
25381;SDS011;16307;42.896;20.874;2023-04-15T00:50:24;1.08;;;0.80;;
25381;SDS011;16307;42.896;20.874;2023-04-15T00:53:56;1.23;;;0.80;;
25381;SDS011;16307;42.896;20.874;2023-04-15T00:57:49;1.88;;;1.00;;
25381;SDS011;16307;42.896;20.874;2023-04-15T01:01:08;2.38;;;0.90;;
25381;SDS011;16307;42.896;20.874;2023-04-15T01:04:35;3.22;;;1.00;;
25381;SDS011;16307;42.896;20.874;2023-04-15T01:07:24;1.42;;;0.80;;
25381;SDS011;16307;42.896;20.874;2023-04-15T01:10:26;2.83;;;1.00;;
25381;SDS011;16307;42.896;20.874;2023-04-15T01:13:54;3.30;;;0.98;;
25381;SDS011;16307;42.896;20.874;2023-04-15T01:16:46;2.03;;;1.10;;
25381;SDS011;16307;42.896;20.874;2023-04-15T01:19:39;3.05;;;1.30;;
25381;SDS011;16307;42.896;20.874;2023-04-15T01:25:31;2.22;;;1.10;;
25381;SDS011;16307;42.896;20.874;2023-04-15T01:28:18;0.80;;;0.65;;
25381;SDS011;16307;42.896;20.874;2023-04-15T01:34:02;1.38;;;0.90;;
25381;SDS011;16307;42.896;20.874;2023-04-15T01:36:57;1.50;;;0.77;;
25381;SDS011;16307;42.896;20.874;2023-04-15T01:40:01;2.33;;;1.10;;
25381;SDS011;16307;42.896;20.874;2023-04-15T01:43:19;1.00;;;0.90;;
25381;SDS011;16307;42.896;20.874;2023-04-15T01:46:15;3.67;;;1.10;;
25381;SDS011;16307;42.896;20.874;2023-04-15T01:49:02;2.08;;;0.90;;
25381;SDS011;16307;42.896;20.874;2023-04-15T01:51:52;2.38;;;1.20;;
25381;SDS011;16307;42.896;20.874;2023-04-15T01:54:39;3.30;;;1.20;;
25381;SDS011;16307;42.896;20.874;2023-04-15T01:57:31;1.42;;;1.00;;
25381;SDS011;16307;42.896;20.874;2023-04-15T02:00:23;3.35;;;1.20;;
25381;SDS011;16307;42.896;20.874;2023-04-15T02:03:12;3.53;;;1.30;;
25381;SDS011;16307;42.896;20.874;2023-04-15T02:06:02;1.58;;;0.88;;
25381;SDS011;16307;42.896;20.874;2023-04-15T02:08:50;2.22;;;1.13;;
25381;SDS011;16307;42.896;20.874;2023-04-15T02:12:11;3.55;;;1.35;;
25381;SDS011;16307;42.896;20.874;2023-04-15T02:15:23;3.63;;;1.10;;
25381;SDS011;16307;42.896;20.874;2023-04-15T02:18:25;2.40;;;1.17;;
25381;SDS011;16307;42.896;20.874;2023-04-15T02:21:59;2.95;;;1.00;;
25381;SDS011;16307;42.896;20.874;2023-04-15T02:24:53;4.65;;;1.10;;
25381;SDS011;16307;42.896;20.874;2023-04-15T02:27:44;0.82;;;0.60;;
25381;SDS011;16307;42.896;20.874;2023-04-15T02:30:45;3.47;;;0.75;;
25381;SDS011;16307;42.896;20.874;2023-04-15T02:33:44;3.97;;;1.15;;
25381;SDS011;16307;42.896;20.874;2023-04-15T02:40:48;0.98;;;0.75;;
25381;SDS011;16307;42.896;20.874;2023-04-15T02:44:56;0.85;;;0.68;;
25381;SDS011;16307;42.896;20.874;2023-04-15T02:48:01;1.67;;;0.80;;
25381;SDS011;16307;42.896;20.874;2023-04-15T02:54:13;2.63;;;1.10;;
25381;SDS011;16307;42.896;20.874;2023-04-15T02:57:17;2.67;;;0.80;;
25381;SDS011;16307;42.896;20.874;2023-04-15T03:00:10;2.55;;;0.93;;
25381;SDS011;16307;42.896;20.874;2023-04-15T03:03:12;3.22;;;1.00;;
25381;SDS011;16307;42.896;20.874;2023-04-15T03:06:02;1.83;;;1.00;;
25381;SDS011;16307;42.896;20.874;2023-04-15T03:08:54;3.25;;;1.00;;
25381;SDS011;16307;42.896;20.874;2023-04-15T03:11:44;3.33;;;1.00;;
25381;SDS011;16307;42.896;20.874;2023-04-15T03:14:45;1.45;;;0.65;;
25381;SDS011;16307;42.896;20.874;2023-04-15T03:17:42;1.73;;;0.80;;
25381;SDS011;16307;42.896;20.874;2023-04-15T03:21:03;1.23;;;0.80;;
25381;SDS011;16307;42.896;20.874;2023-04-15T03:24:08;3.28;;;0.90;;
25381;SDS011;16307;42.896;20.874;2023-04-15T03:27:05;2.40;;;1.10;;
25381;SDS011;16307;42.896;20.874;2023-04-15T03:29:58;6.30;;;1.58;;
25381;SDS011;16307;42.896;20.874;2023-04-15T03:32:59;2.53;;;1.10;;
25381;SDS011;16307;42.896;20.874;2023-04-15T03:35:54;3.47;;;1.15;;
25381;SDS011;16307;42.896;20.874;2023-04-15T03:39:07;3.13;;;0.90;;
25381;SDS011;16307;42.896;20.874;2023-04-15T03:42:46;1.80;;;1.30;;
25381;SDS011;16307;42.896;20.874;2023-04-15T03:45:56;1.40;;;1.00;;
25381;SDS011;16307;42.896;20.874;2023-04-15T03:52:43;3.72;;;1.45;;
25381;SDS011;16307;42.896;20.874;2023-04-15T03:55:42;2.35;;;1.35;;
25381;SDS011;16307;42.896;20.874;2023-04-15T03:58:40;2.97;;;1.02;;
25381;SDS011;16307;42.896;20.874;2023-04-15T04:05:55;2.15;;;1.00;;
25381;SDS011;16307;42.896;20.874;2023-04-15T04:08:42;1.55;;;1.00;;
25381;SDS011;16307;42.896;20.874;2023-04-15T04:11:36;2.03;;;0.88;;
25381;SDS011;16307;42.896;20.874;2023-04-15T04:14:28;1.90;;;0.90;;
25381;SDS011;16307;42.896;20.874;2023-04-15T04:17:22;3.22;;;1.08;;
25381;SDS011;16307;42.896;20.874;2023-04-15T04:20:21;1.50;;;0.90;;
25381;SDS011;16307;42.896;20.874;2023-04-15T04:23:08;2.35;;;0.82;;
25381;SDS011;16307;42.896;20.874;2023-04-15T04:25:54;6.25;;;1.70;;
25381;SDS011;16307;42.896;20.874;2023-04-15T04:28:51;4.88;;;2.30;;
25381;SDS011;16307;42.896;20.874;2023-04-15T04:31:42;9.10;;;3.90;;
25381;SDS011;16307;42.896;20.874;2023-04-15T04:34:44;9.85;;;4.80;;
25381;SDS011;16307;42.896;20.874;2023-04-15T04:37:38;9.45;;;4.78;;
25381;SDS011;16307;42.896;20.874;2023-04-15T04:41:06;9.18;;;4.60;;
25381;SDS011;16307;42.896;20.874;2023-04-15T04:48:46;3.70;;;1.88;;
25381;SDS011;16307;42.896;20.874;2023-04-15T04:52:07;6.28;;;2.00;;
25381;SDS011;16307;42.896;20.874;2023-04-15T04:55:33;4.82;;;2.63;;
25381;SDS011;16307;42.896;20.874;2023-04-15T04:59:14;2.33;;;1.25;;
25381;SDS011;16307;42.896;20.874;2023-04-15T05:02:13;2.78;;;1.23;;
25381;SDS011;16307;42.896;20.874;2023-04-15T05:05:19;1.77;;;1.08;;
25381;SDS011;16307;42.896;20.874;2023-04-15T05:08:08;1.35;;;0.90;;
25381;SDS011;16307;42.896;20.874;2023-04-15T05:10:59;2.20;;;1.20;;
25381;SDS011;16307;42.896;20.874;2023-04-15T05:13:52;1.65;;;1.10;;
25381;SDS011;16307;42.896;20.874;2023-04-15T05:16:38;2.08;;;0.90;;
25381;SDS011;16307;42.896;20.874;2023-04-15T05:19:25;2.72;;;1.20;;
25381;SDS011;16307;42.896;20.874;2023-04-15T05:22:17;1.88;;;1.02;;
25381;SDS011;16307;42.896;20.874;2023-04-15T05:25:09;1.38;;;1.02;;
25381;SDS011;16307;42.896;20.874;2023-04-15T05:28:02;1.70;;;1.08;;
25381;SDS011;16307;42.896;20.874;2023-04-15T05:30:48;1.63;;;0.93;;
25381;SDS011;16307;42.896;20.874;2023-04-15T05:33:35;2.25;;;1.00;;
25381;SDS011;16307;42.896;20.874;2023-04-15T05:36:22;1.67;;;1.10;;
25381;SDS011;16307;42.896;20.874;2023-04-15T05:39:20;1.75;;;1.00;;
25381;SDS011;16307;42.896;20.874;2023-04-15T05:42:15;2.47;;;1.30;;
25381;SDS011;16307;42.896;20.874;2023-04-15T05:45:16;2.45;;;1.42;;
25381;SDS011;16307;42.896;20.874;2023-04-15T05:48:22;4.38;;;1.67;;
25381;SDS011;16307;42.896;20.874;2023-04-15T05:51:14;1.88;;;1.00;;
25381;SDS011;16307;42.896;20.874;2023-04-15T05:54:16;3.50;;;1.80;;
25381;SDS011;16307;42.896;20.874;2023-04-15T05:57:23;3.55;;;2.17;;
25381;SDS011;16307;42.896;20.874;2023-04-15T06:00:18;5.13;;;2.30;;
25381;SDS011;16307;42.896;20.874;2023-04-15T06:03:27;2.33;;;1.58;;
25381;SDS011;16307;42.896;20.874;2023-04-15T06:06:23;3.55;;;1.73;;
25381;SDS011;16307;42.896;20.874;2023-04-15T06:09:24;2.75;;;1.52;;
25381;SDS011;16307;42.896;20.874;2023-04-15T06:12:27;3.78;;;1.52;;
25381;SDS011;16307;42.896;20.874;2023-04-15T06:16:18;2.95;;;1.50;;
25381;SDS011;16307;42.896;20.874;2023-04-15T06:20:00;2.22;;;1.40;;
25381;SDS011;16307;42.896;20.874;2023-04-15T06:23:28;3.42;;;1.65;;
25381;SDS011;16307;42.896;20.874;2023-04-15T06:28:03;2.75;;;1.45;;
25381;SDS011;16307;42.896;20.874;2023-04-15T06:31:26;3.13;;;1.47;;
25381;SDS011;16307;42.896;20.874;2023-04-15T06:34:54;2.40;;;1.48;;
25381;SDS011;16307;42.896;20.874;2023-04-15T06:38:16;2.55;;;1.33;;
25381;SDS011;16307;42.896;20.874;2023-04-15T06:41:41;2.72;;;1.15;;
25381;SDS011;16307;42.896;20.874;2023-04-15T06:45:19;4.32;;;2.05;;
25381;SDS011;16307;42.896;20.874;2023-04-15T07:13:30;7.35;;;3.35;;
25381;SDS011;16307;42.896;20.874;2023-04-15T07:16:26;6.63;;;3.15;;
25381;SDS011;16307;42.896;20.874;2023-04-15T07:19:43;3.90;;;2.30;;
25381;SDS011;16307;42.896;20.874;2023-04-15T07:22:35;6.28;;;2.63;;
25381;SDS011;16307;42.896;20.874;2023-04-15T07:25:44;6.82;;;2.55;;
25381;SDS011;16307;42.896;20.874;2023-04-15T07:29:22;9.90;;;3.38;;
25381;SDS011;16307;42.896;20.874;2023-04-15T07:32:27;6.32;;;2.40;;
25381;SDS011;16307;42.896;20.874;2023-04-15T07:35:44;8.05;;;2.70;;
25381;SDS011;16307;42.896;20.874;2023-04-15T07:39:14;12.85;;;3.67;;
25381;SDS011;16307;42.896;20.874;2023-04-15T07:42:28;6.93;;;2.13;;
25381;SDS011;16307;42.896;20.874;2023-04-15T07:49:54;8.77;;;2.45;;
25381;SDS011;16307;42.896;20.874;2023-04-15T08:05:03;6.18;;;2.55;;
25381;SDS011;16307;42.896;20.874;2023-04-15T08:08:01;14.68;;;5.60;;
25381;SDS011;16307;42.896;20.874;2023-04-15T08:10:48;9.95;;;3.50;;
25381;SDS011;16307;42.896;20.874;2023-04-15T08:13:40;10.57;;;3.20;;
25381;SDS011;16307;42.896;20.874;2023-04-15T08:17:02;8.77;;;2.67;;
25381;SDS011;16307;42.896;20.874;2023-04-15T08:19:49;4.15;;;2.20;;
25381;SDS011;16307;42.896;20.874;2023-04-15T08:23:11;6.00;;;1.80;;
25381;SDS011;16307;42.896;20.874;2023-04-15T08:30:24;5.80;;;1.63;;
25381;SDS011;16307;42.896;20.874;2023-04-15T08:33:29;3.72;;;1.50;;
25381;SDS011;16307;42.896;20.874;2023-04-15T08:36:22;40.05;;;21.77;;
25381;SDS011;16307;42.896;20.874;2023-04-15T08:39:51;56.53;;;29.42;;
25381;SDS011;16307;42.896;20.874;2023-04-15T08:43:48;14.57;;;3.22;;
25381;SDS011;16307;42.896;20.874;2023-04-15T08:46:44;5.97;;;2.28;;
25381;SDS011;16307;42.896;20.874;2023-04-15T08:49:38;6.97;;;2.60;;
25381;SDS011;16307;42.896;20.874;2023-04-15T08:52:26;12.15;;;1.92;;
25381;SDS011;16307;42.896;20.874;2023-04-15T08:55:12;4.30;;;1.70;;
25381;SDS011;16307;42.896;20.874;2023-04-15T08:57:58;6.97;;;2.20;;
25381;SDS011;16307;42.896;20.874;2023-04-15T09:00:47;5.63;;;1.90;;
25381;SDS011;16307;42.896;20.874;2023-04-15T09:03:36;7.25;;;2.60;;
25381;SDS011;16307;42.896;20.874;2023-04-15T10:20:49;3.10;;;1.50;;
25381;SDS011;16307;42.896;20.874;2023-04-15T10:30:38;5.43;;;3.03;;
25381;SDS011;16307;42.896;20.874;2023-04-15T10:42:07;7.65;;;2.80;;
25381;SDS011;16307;42.896;20.874;2023-04-15T10:45:17;11.95;;;3.30;;
25381;SDS011;16307;42.896;20.874;2023-04-15T10:48:56;9.27;;;3.20;;
25381;SDS011;16307;42.896;20.874;2023-04-15T10:52:23;12.75;;;2.92;;
25381;SDS011;16307;42.896;20.874;2023-04-15T10:55:25;8.38;;;2.80;;
25381;SDS011;16307;42.896;20.874;2023-04-15T10:58:38;6.40;;;2.00;;
25381;SDS011;16307;42.896;20.874;2023-04-15T11:02:04;2.78;;;1.10;;
25381;SDS011;16307;42.896;20.874;2023-04-15T11:05:06;5.63;;;1.90;;
25381;SDS011;16307;42.896;20.874;2023-04-15T11:08:09;3.15;;;1.17;;
25381;SDS011;16307;42.896;20.874;2023-04-15T11:11:18;5.22;;;1.55;;
25381;SDS011;16307;42.896;20.874;2023-04-15T11:18:41;3.75;;;1.27;;
25381;SDS011;16307;42.896;20.874;2023-04-15T11:21:41;9.27;;;2.13;;
25381;SDS011;16307;42.896;20.874;2023-04-15T11:24:53;7.15;;;2.70;;
25381;SDS011;16307;42.896;20.874;2023-04-15T11:28:02;6.13;;;1.83;;
25381;SDS011;16307;42.896;20.874;2023-04-15T11:31:10;11.23;;;4.90;;
25381;SDS011;16307;42.896;20.874;2023-04-15T11:34:47;5.75;;;2.00;;
25381;SDS011;16307;42.896;20.874;2023-04-15T11:38:30;6.53;;;1.60;;
25381;SDS011;16307;42.896;20.874;2023-04-15T11:41:30;5.40;;;0.98;;
25381;SDS011;16307;42.896;20.874;2023-04-15T11:45:05;6.32;;;1.60;;
25381;SDS011;16307;42.896;20.874;2023-04-15T11:48:40;13.13;;;4.70;;
25381;SDS011;16307;42.896;20.874;2023-04-15T11:54:26;7.13;;;1.60;;
25381;SDS011;16307;42.896;20.874;2023-04-15T11:57:20;4.38;;;1.00;;
25381;SDS011;16307;42.896;20.874;2023-04-15T12:00:51;6.18;;;1.38;;
25381;SDS011;16307;42.896;20.874;2023-04-15T12:03:43;6.05;;;1.33;;
25381;SDS011;16307;42.896;20.874;2023-04-15T12:09:19;2.70;;;0.90;;
25381;SDS011;16307;42.896;20.874;2023-04-15T12:12:06;3.92;;;1.13;;
25381;SDS011;16307;42.896;20.874;2023-04-15T12:14:52;6.50;;;1.50;;
25381;SDS011;16307;42.896;20.874;2023-04-15T12:17:45;3.60;;;1.05;;
25381;SDS011;16307;42.896;20.874;2023-04-15T12:20:42;4.43;;;1.23;;
25381;SDS011;16307;42.896;20.874;2023-04-15T12:23:29;5.72;;;1.83;;
25381;SDS011;16307;42.896;20.874;2023-04-15T12:26:16;4.43;;;1.50;;
25381;SDS011;16307;42.896;20.874;2023-04-15T12:29:05;5.18;;;1.20;;
25381;SDS011;16307;42.896;20.874;2023-04-15T12:31:57;5.18;;;1.35;;
25381;SDS011;16307;42.896;20.874;2023-04-15T12:37:35;6.47;;;1.20;;
25381;SDS011;16307;42.896;20.874;2023-04-15T12:40:23;8.30;;;1.40;;
25381;SDS011;16307;42.896;20.874;2023-04-15T12:43:09;3.97;;;0.90;;
25381;SDS011;16307;42.896;20.874;2023-04-15T12:45:56;4.00;;;1.00;;
25381;SDS011;16307;42.896;20.874;2023-04-15T12:48:42;4.63;;;1.40;;
25381;SDS011;16307;42.896;20.874;2023-04-15T12:51:29;7.40;;;1.67;;
25381;SDS011;16307;42.896;20.874;2023-04-15T12:54:17;8.13;;;1.60;;
25381;SDS011;16307;42.896;20.874;2023-04-15T12:57:03;8.32;;;2.17;;
25381;SDS011;16307;42.896;20.874;2023-04-15T12:59:52;5.43;;;1.25;;
25381;SDS011;16307;42.896;20.874;2023-04-15T13:02:38;4.50;;;1.25;;
25381;SDS011;16307;42.896;20.874;2023-04-15T13:05:25;7.15;;;1.58;;
25381;SDS011;16307;42.896;20.874;2023-04-15T13:08:12;7.10;;;1.35;;
25381;SDS011;16307;42.896;20.874;2023-04-15T13:10:58;5.78;;;1.10;;
25381;SDS011;16307;42.896;20.874;2023-04-15T13:13:45;7.60;;;1.85;;
25381;SDS011;16307;42.896;20.874;2023-04-15T13:16:33;11.18;;;2.95;;
25381;SDS011;16307;42.896;20.874;2023-04-15T13:19:23;13.18;;;2.67;;
25381;SDS011;16307;42.896;20.874;2023-04-15T13:22:09;9.32;;;2.22;;
25381;SDS011;16307;42.896;20.874;2023-04-15T13:24:56;5.32;;;1.60;;
25381;SDS011;16307;42.896;20.874;2023-04-15T13:27:43;5.60;;;1.50;;
25381;SDS011;16307;42.896;20.874;2023-04-15T13:30:33;4.55;;;1.55;;
25381;SDS011;16307;42.896;20.874;2023-04-15T13:33:20;8.95;;;1.90;;
25381;SDS011;16307;42.896;20.874;2023-04-15T13:36:07;7.82;;;3.15;;
25381;SDS011;16307;42.896;20.874;2023-04-15T13:38:53;11.60;;;3.53;;
25381;SDS011;16307;42.896;20.874;2023-04-15T13:41:40;5.57;;;3.22;;
25381;SDS011;16307;42.896;20.874;2023-04-15T13:44:37;6.40;;;1.92;;
25381;SDS011;16307;42.896;20.874;2023-04-15T13:47:24;8.55;;;2.08;;
25381;SDS011;16307;42.896;20.874;2023-04-15T13:50:14;6.88;;;1.88;;
25381;SDS011;16307;42.896;20.874;2023-04-15T13:53:06;3.47;;;1.75;;
25381;SDS011;16307;42.896;20.874;2023-04-15T13:55:56;2.65;;;1.20;;
25381;SDS011;16307;42.896;20.874;2023-04-15T13:58:42;4.18;;;2.47;;
25381;SDS011;16307;42.896;20.874;2023-04-15T14:01:31;8.23;;;2.85;;
25381;SDS011;16307;42.896;20.874;2023-04-15T14:04:20;12.70;;;7.20;;
25381;SDS011;16307;42.896;20.874;2023-04-15T14:07:08;14.85;;;7.38;;
25381;SDS011;16307;42.896;20.874;2023-04-15T14:09:54;8.25;;;3.15;;
25381;SDS011;16307;42.896;20.874;2023-04-15T14:12:43;5.47;;;2.40;;
25381;SDS011;16307;42.896;20.874;2023-04-15T14:15:33;7.93;;;3.08;;
25381;SDS011;16307;42.896;20.874;2023-04-15T14:18:31;3.95;;;1.55;;
25381;SDS011;16307;42.896;20.874;2023-04-15T14:21:18;4.85;;;2.40;;
25381;SDS011;16307;42.896;20.874;2023-04-15T14:24:04;11.85;;;6.55;;
25381;SDS011;16307;42.896;20.874;2023-04-15T14:26:52;16.88;;;8.30;;
25381;SDS011;16307;42.896;20.874;2023-04-15T14:29:38;4.07;;;1.90;;
25381;SDS011;16307;42.896;20.874;2023-04-15T14:32:24;13.05;;;3.90;;
25381;SDS011;16307;42.896;20.874;2023-04-15T14:35:11;12.48;;;4.60;;
25381;SDS011;16307;42.896;20.874;2023-04-15T14:38:16;11.23;;;4.40;;
25381;SDS011;16307;42.896;20.874;2023-04-15T14:41:10;8.82;;;2.38;;
25381;SDS011;16307;42.896;20.874;2023-04-15T15:10:12;3.28;;;1.15;;
25381;SDS011;16307;42.896;20.874;2023-04-15T15:12:59;4.70;;;0.90;;
25381;SDS011;16307;42.896;20.874;2023-04-15T15:15:48;4.75;;;1.33;;
25381;SDS011;16307;42.896;20.874;2023-04-15T15:18:38;8.82;;;2.45;;
25381;SDS011;16307;42.896;20.874;2023-04-15T15:21:25;5.15;;;1.40;;
25381;SDS011;16307;42.896;20.874;2023-04-15T15:24:11;5.05;;;2.13;;
25381;SDS011;16307;42.896;20.874;2023-04-15T15:26:58;9.57;;;1.40;;
25381;SDS011;16307;42.896;20.874;2023-04-15T15:34:43;7.22;;;2.40;;
25381;SDS011;16307;42.896;20.874;2023-04-15T15:45:21;8.80;;;1.45;;
25381;SDS011;16307;42.896;20.874;2023-04-15T15:48:08;5.07;;;1.52;;
25381;SDS011;16307;42.896;20.874;2023-04-15T15:50:54;6.40;;;1.73;;
25381;SDS011;16307;42.896;20.874;2023-04-15T16:05:25;9.75;;;2.30;;
25381;SDS011;16307;42.896;20.874;2023-04-15T16:08:12;4.53;;;1.65;;
25381;SDS011;16307;42.896;20.874;2023-04-15T16:10:58;6.25;;;2.60;;
25381;SDS011;16307;42.896;20.874;2023-04-15T16:13:45;6.20;;;2.08;;
25381;SDS011;16307;42.896;20.874;2023-04-15T16:16:31;8.98;;;2.28;;
25381;SDS011;16307;42.896;20.874;2023-04-15T16:19:18;6.15;;;1.95;;
25381;SDS011;16307;42.896;20.874;2023-04-15T16:22:05;7.05;;;2.40;;
25381;SDS011;16307;42.896;20.874;2023-04-15T16:24:52;6.78;;;2.08;;
25381;SDS011;16307;42.896;20.874;2023-04-15T16:27:39;3.05;;;1.35;;
25381;SDS011;16307;42.896;20.874;2023-04-15T16:30:45;6.68;;;2.20;;
25381;SDS011;16307;42.896;20.874;2023-04-15T16:33:31;7.32;;;3.22;;
25381;SDS011;16307;42.896;20.874;2023-04-15T16:36:18;8.73;;;2.75;;
25381;SDS011;16307;42.896;20.874;2023-04-15T16:39:04;9.88;;;2.78;;
25381;SDS011;16307;42.896;20.874;2023-04-15T16:41:52;8.90;;;2.78;;
25381;SDS011;16307;42.896;20.874;2023-04-15T16:44:44;9.10;;;2.72;;
25381;SDS011;16307;42.896;20.874;2023-04-15T16:47:32;10.43;;;2.97;;
25381;SDS011;16307;42.896;20.874;2023-04-15T16:50:19;13.07;;;3.88;;
25381;SDS011;16307;42.896;20.874;2023-04-15T16:53:05;17.00;;;5.45;;
25381;SDS011;16307;42.896;20.874;2023-04-15T16:55:53;10.13;;;3.40;;
25381;SDS011;16307;42.896;20.874;2023-04-15T16:58:39;11.10;;;3.88;;
25381;SDS011;16307;42.896;20.874;2023-04-15T17:01:25;13.38;;;4.93;;
25381;SDS011;16307;42.896;20.874;2023-04-15T17:04:12;16.90;;;5.05;;
25381;SDS011;16307;42.896;20.874;2023-04-15T17:06:58;23.40;;;12.32;;
25381;SDS011;16307;42.896;20.874;2023-04-15T17:09:45;16.75;;;5.75;;
25381;SDS011;16307;42.896;20.874;2023-04-15T17:12:33;14.77;;;6.10;;
25381;SDS011;16307;42.896;20.874;2023-04-15T17:15:19;20.45;;;7.28;;
25381;SDS011;16307;42.896;20.874;2023-04-15T17:18:11;16.77;;;6.22;;
25381;SDS011;16307;42.896;20.874;2023-04-15T17:20:57;20.95;;;7.25;;
25381;SDS011;16307;42.896;20.874;2023-04-15T17:23:43;18.63;;;6.78;;
25381;SDS011;16307;42.896;20.874;2023-04-15T17:26:29;14.80;;;6.55;;
25381;SDS011;16307;42.896;20.874;2023-04-15T17:29:16;15.50;;;7.10;;
25381;SDS011;16307;42.896;20.874;2023-04-15T17:32:02;17.75;;;5.70;;
25381;SDS011;16307;42.896;20.874;2023-04-15T17:34:49;10.38;;;4.63;;
25381;SDS011;16307;42.896;20.874;2023-04-15T17:37:36;15.00;;;4.88;;
25381;SDS011;16307;42.896;20.874;2023-04-15T17:40:30;10.30;;;4.18;;
25381;SDS011;16307;42.896;20.874;2023-04-15T17:43:16;16.00;;;4.50;;
25381;SDS011;16307;42.896;20.874;2023-04-15T17:46:02;10.43;;;3.47;;
25381;SDS011;16307;42.896;20.874;2023-04-15T17:48:49;9.85;;;4.00;;
25381;SDS011;16307;42.896;20.874;2023-04-15T17:51:35;7.50;;;3.78;;
25381;SDS011;16307;42.896;20.874;2023-04-15T17:54:24;10.25;;;3.55;;
25381;SDS011;16307;42.896;20.874;2023-04-15T17:57:14;13.52;;;5.38;;
25381;SDS011;16307;42.896;20.874;2023-04-15T18:00:00;16.35;;;5.55;;
25381;SDS011;16307;42.896;20.874;2023-04-15T18:02:57;13.45;;;5.72;;
25381;SDS011;16307;42.896;20.874;2023-04-15T18:05:54;13.73;;;6.28;;
25381;SDS011;16307;42.896;20.874;2023-04-15T18:08:40;17.30;;;6.75;;
25381;SDS011;16307;42.896;20.874;2023-04-15T18:11:33;16.02;;;7.57;;
25381;SDS011;16307;42.896;20.874;2023-04-15T18:14:19;21.58;;;7.95;;
25381;SDS011;16307;42.896;20.874;2023-04-15T18:17:19;21.40;;;6.18;;
25381;SDS011;16307;42.896;20.874;2023-04-15T18:20:05;18.35;;;5.93;;
25381;SDS011;16307;42.896;20.874;2023-04-15T18:22:52;18.75;;;7.28;;
25381;SDS011;16307;42.896;20.874;2023-04-15T18:25:39;18.20;;;7.93;;
25381;SDS011;16307;42.896;20.874;2023-04-15T18:28:29;18.05;;;7.70;;
25381;SDS011;16307;42.896;20.874;2023-04-15T18:31:19;17.27;;;6.75;;
25381;SDS011;16307;42.896;20.874;2023-04-15T18:34:08;20.83;;;7.05;;
25381;SDS011;16307;42.896;20.874;2023-04-15T18:37:38;18.08;;;5.95;;
25381;SDS011;16307;42.896;20.874;2023-04-15T18:40:28;13.35;;;4.90;;
25381;SDS011;16307;42.896;20.874;2023-04-15T18:43:14;14.70;;;4.50;;
25381;SDS011;16307;42.896;20.874;2023-04-15T18:46:01;9.85;;;4.20;;
25381;SDS011;16307;42.896;20.874;2023-04-15T18:48:48;12.48;;;4.85;;
25381;SDS011;16307;42.896;20.874;2023-04-15T18:51:35;17.35;;;5.68;;
25381;SDS011;16307;42.896;20.874;2023-04-15T18:54:21;19.08;;;5.68;;
25381;SDS011;16307;42.896;20.874;2023-04-15T18:57:08;20.15;;;6.30;;
25381;SDS011;16307;42.896;20.874;2023-04-15T18:59:54;14.43;;;5.10;;
25381;SDS011;16307;42.896;20.874;2023-04-15T19:02:40;25.17;;;6.18;;
25381;SDS011;16307;42.896;20.874;2023-04-15T19:05:28;20.58;;;6.72;;
25381;SDS011;16307;42.896;20.874;2023-04-15T19:08:14;24.13;;;6.95;;
25381;SDS011;16307;42.896;20.874;2023-04-15T19:11:01;16.98;;;6.22;;
25381;SDS011;16307;42.896;20.874;2023-04-15T19:13:47;21.42;;;5.78;;
25381;SDS011;16307;42.896;20.874;2023-04-15T19:16:33;17.42;;;4.97;;
25381;SDS011;16307;42.896;20.874;2023-04-15T19:19:20;11.93;;;4.30;;
25381;SDS011;16307;42.896;20.874;2023-04-15T19:22:07;10.55;;;3.28;;
25381;SDS011;16307;42.896;20.874;2023-04-15T19:24:53;10.98;;;3.72;;
25381;SDS011;16307;42.896;20.874;2023-04-15T19:27:39;9.30;;;3.42;;
25381;SDS011;16307;42.896;20.874;2023-04-15T19:30:27;13.23;;;3.50;;
25381;SDS011;16307;42.896;20.874;2023-04-15T19:33:17;8.40;;;3.88;;
25381;SDS011;16307;42.896;20.874;2023-04-15T19:36:06;11.15;;;4.10;;
25381;SDS011;16307;42.896;20.874;2023-04-15T19:38:53;14.93;;;5.70;;
25381;SDS011;16307;42.896;20.874;2023-04-15T19:41:48;15.02;;;5.57;;
25381;SDS011;16307;42.896;20.874;2023-04-15T19:44:38;25.38;;;7.13;;
25381;SDS011;16307;42.896;20.874;2023-04-15T19:47:27;24.80;;;8.82;;
25381;SDS011;16307;42.896;20.874;2023-04-15T19:50:14;24.00;;;7.13;;
25381;SDS011;16307;42.896;20.874;2023-04-15T19:53:01;20.63;;;6.38;;
25381;SDS011;16307;42.896;20.874;2023-04-15T19:55:48;21.73;;;7.95;;
25381;SDS011;16307;42.896;20.874;2023-04-15T19:58:35;12.63;;;5.85;;
25381;SDS011;16307;42.896;20.874;2023-04-15T20:01:22;20.20;;;7.10;;
25381;SDS011;16307;42.896;20.874;2023-04-15T20:04:09;21.33;;;8.60;;
25381;SDS011;16307;42.896;20.874;2023-04-15T20:06:56;22.90;;;10.52;;
25381;SDS011;16307;42.896;20.874;2023-04-15T20:09:57;25.10;;;9.13;;
25381;SDS011;16307;42.896;20.874;2023-04-15T20:12:57;22.95;;;8.45;;
25381;SDS011;16307;42.896;20.874;2023-04-15T20:15:47;29.40;;;8.18;;
25381;SDS011;16307;42.896;20.874;2023-04-15T20:18:36;18.00;;;7.32;;
25381;SDS011;16307;42.896;20.874;2023-04-15T20:21:23;17.08;;;5.18;;
25381;SDS011;16307;42.896;20.874;2023-04-15T20:24:12;13.48;;;5.50;;
25381;SDS011;16307;42.896;20.874;2023-04-15T20:26:59;18.50;;;5.20;;
25381;SDS011;16307;42.896;20.874;2023-04-15T20:29:50;11.30;;;3.92;;
25381;SDS011;16307;42.896;20.874;2023-04-15T20:32:41;14.77;;;3.90;;
25381;SDS011;16307;42.896;20.874;2023-04-15T20:35:28;11.15;;;4.30;;
25381;SDS011;16307;42.896;20.874;2023-04-15T20:38:16;12.15;;;4.85;;
25381;SDS011;16307;42.896;20.874;2023-04-15T20:41:05;10.88;;;4.88;;
25381;SDS011;16307;42.896;20.874;2023-04-15T20:43:52;14.80;;;4.85;;
25381;SDS011;16307;42.896;20.874;2023-04-15T20:46:40;13.27;;;5.15;;
25381;SDS011;16307;42.896;20.874;2023-04-15T20:49:36;15.60;;;5.63;;
25381;SDS011;16307;42.896;20.874;2023-04-15T20:52:24;14.35;;;5.45;;
25381;SDS011;16307;42.896;20.874;2023-04-15T20:55:22;14.07;;;5.53;;
25381;SDS011;16307;42.896;20.874;2023-04-15T20:58:15;17.75;;;5.28;;
25381;SDS011;16307;42.896;20.874;2023-04-15T21:01:02;17.42;;;5.85;;
25381;SDS011;16307;42.896;20.874;2023-04-15T21:03:57;11.63;;;5.25;;
25381;SDS011;16307;42.896;20.874;2023-04-15T21:06:47;15.10;;;5.68;;
25381;SDS011;16307;42.896;20.874;2023-04-15T21:09:37;19.23;;;5.95;;
25381;SDS011;16307;42.896;20.874;2023-04-15T21:12:26;15.13;;;4.95;;
25381;SDS011;16307;42.896;20.874;2023-04-15T21:15:20;13.52;;;4.85;;